Lakki Marwat Weather



Lakki Marwat's Current Weather

Temprature 18.43o clear sky

clear sky

Rain: 0 %

Min Temprature18.43o
Max Temprature18.43o
Humidity28
Wind Speed0.31 m/h
Sun Rise06:30:28
Sun Set17:29:35
Current Time: 28-Oct-2020 07:15:43
Lat/Lon: 32.61, 70.91




Lakki Marwat's Geo Location



Lakki Marwat's Weather Forecast

Time Overall Temp Min Temp Max Temp Humidity Wind Speed Rain
28-Oct-2020 (Wed)
08:00:00 clear sky 20.890 20.890 23.750 24 0.61 m/h 0 %
11:00:00 clear sky 26.310 26.310 28.550 17 0.72 m/h 0 %
14:00:00 clear sky 29.960 29.960 30.770 13 2.34 m/h 0 %
17:00:00 clear sky 28.170 28.170 28.250 14 2.49 m/h 0 %
20:00:00 clear sky 23.140 23.140 23.140 20 1.7 m/h 0 %
23:00:00 clear sky 21.260 21.260 21.260 22 1.14 m/h 0 %
29-Oct-2020 (Thu)
02:00:00 clear sky 19.550 19.550 19.550 25 1.38 m/h 0 %
05:00:00 clear sky 18.440 18.440 18.440 27 1.04 m/h 0 %
08:00:00 clear sky 23.310 23.310 23.310 20 1.12 m/h 0 %
11:00:00 clear sky 28.250 28.250 28.250 15 2.31 m/h 0 %
14:00:00 clear sky 30.640 30.640 30.640 13 2.9 m/h 0 %
17:00:00 clear sky 28.300 28.300 28.300 14 3.01 m/h 0 %
20:00:00 clear sky 23.250 23.250 23.250 20 2.19 m/h 0 %
23:00:00 clear sky 20.700 20.700 20.700 23 1.23 m/h 0 %
30-Oct-2020 (Fri)
02:00:00 clear sky 19.230 19.230 19.230 24 1.28 m/h 0 %
05:00:00 clear sky 18.100 18.100 18.100 26 1.22 m/h 0 %
08:00:00 clear sky 23.140 23.140 23.140 19 0.87 m/h 0 %
11:00:00 clear sky 28.570 28.570 28.570 13 0.76 m/h 0 %
14:00:00 clear sky 30.610 30.610 30.610 12 1.31 m/h 0 %
17:00:00 clear sky 27.160 27.160 27.160 15 1.23 m/h 0 %
20:00:00 clear sky 23.120 23.120 23.120 19 1.98 m/h 0 %
23:00:00 clear sky 20.360 20.360 20.360 22 0.43 m/h 0 %
31-Oct-2020 (Sat)
02:00:00 clear sky 19.490 19.490 19.490 23 1.66 m/h 0 %
05:00:00 clear sky 17.660 17.660 17.660 27 0.97 m/h 0 %
08:00:00 clear sky 22.850 22.850 22.850 20 0.8 m/h 0 %
11:00:00 clear sky 28.900 28.900 28.900 14 1.31 m/h 0 %
14:00:00 clear sky 31.040 31.040 31.040 12 0.78 m/h 0 %
17:00:00 clear sky 26.900 26.900 26.900 15 0.86 m/h 0 %
20:00:00 clear sky 22.700 22.700 22.700 18 1.77 m/h 0 %
23:00:00 clear sky 20.350 20.350 20.350 21 0.99 m/h 0 %
01-Nov-2020 (Sun)
02:00:00 clear sky 18.720 18.720 18.720 24 1.3 m/h 0 %
05:00:00 clear sky 17.320 17.320 17.320 26 1.04 m/h 0 %
08:00:00 clear sky 22.370 22.370 22.370 19 1.26 m/h 0 %
11:00:00 clear sky 28.970 28.970 28.970 11 1.84 m/h 0 %
14:00:00 clear sky 31.410 31.410 31.410 9 0.93 m/h 0 %
17:00:00 clear sky 25.720 25.720 25.720 14 0.59 m/h 0 %
20:00:00 clear sky 23.110 23.110 23.110 16 2.3 m/h 0 %
23:00:00 clear sky 20.360 20.360 20.360 19 1.05 m/h 0 %
02-Nov-2020 (Mon)
02:00:00 clear sky 18.980 18.980 18.980 21 1.65 m/h 0 %
05:00:00 clear sky 17.420 17.420 17.420 22 1.34 m/h 0 %

Famous Cities (60)